Time;durP1;ratioP1;P1;durP2;ratioP2;P2;SDS_P1;SDS_P2;PMS_P1;PMS_P2;Temp;Humidity;BMP_temperature;BMP_pressure;BME280_temperature;BME280_humidity;BME280_pressure;Samples;Min_cycle;Max_cycle;Signal;HPM_P1;HPM_P2
2023/04/12 00:02:06;;;;;;;4.72;3.10;;;;;;;3.94;100.00;100279.41;4995186;28;20160;-85
2023/04/12 00:04:34;;;;;;;3.15;2.75;;;;;;;3.93;100.00;100277.66;5009990;28;20038;-84
2023/04/12 00:07:02;;;;;;;6.18;3.85;;;;;;;3.93;100.00;100272.47;4974789;28;20042;-85
2023/04/12 00:09:30;;;;;;;7.30;3.33;;;;;;;3.90;100.00;100269.00;4993694;28;20625;-86
2023/04/12 00:11:58;;;;;;;6.32;3.33;;;;;;;3.90;100.00;100256.91;4974462;28;20497;-85
2023/04/12 00:14:26;;;;;;;10.77;3.05;;;;;;;3.90;100.00;100248.28;4991709;28;20614;-85
2023/04/12 00:16:52;;;;;;;4.97;3.25;;;;;;;3.89;100.00;100246.53;4995127;28;20042;-83
2023/04/12 00:19:19;;;;;;;6.63;3.90;;;;;;;3.89;100.00;100244.81;4975251;28;20108;-85
2023/04/12 00:21:49;;;;;;;4.70;3.38;;;;;;;3.90;100.00;100240.50;4990082;28;20061;-84
2023/04/12 00:24:15;;;;;;;8.85;3.45;;;;;;;3.89;100.00;100229.25;5005691;28;20049;-84
2023/04/12 00:26:42;;;;;;;5.38;3.08;;;;;;;3.87;100.00;100228.41;5004874;28;20056;-85
2023/04/12 00:29:08;;;;;;;7.93;3.13;;;;;;;3.89;100.00;100223.22;4974808;28;20042;-83
2023/04/12 00:31:35;;;;;;;6.50;3.08;;;;;;;3.89;100.00;100221.50;4989661;28;20085;-84
2023/04/12 00:34:02;;;;;;;6.22;3.33;;;;;;;3.89;100.00;100215.47;4992284;28;20074;-85
2023/04/12 00:36:28;;;;;;;3.38;3.05;;;;;;;3.87;100.00;100215.44;5021720;28;20042;-86
2023/04/12 00:38:55;;;;;;;4.93;3.08;;;;;;;3.88;100.00;100203.34;4978994;28;20049;-86
2023/04/12 00:41:23;;;;;;;9.40;3.17;;;;;;;3.86;100.00;100194.69;5029174;28;20041;-87
2023/04/12 00:43:50;;;;;;;6.72;3.00;;;;;;;3.86;100.00;100198.16;4997084;28;20500;-86
2023/04/12 00:46:18;;;;;;;5.47;2.80;;;;;;;3.83;100.00;100192.94;5011875;28;20495;-87
2023/04/12 00:48:46;;;;;;;7.55;3.00;;;;;;;3.85;100.00;100185.22;5010871;28;20053;-86
2023/04/12 00:51:13;;;;;;;6.38;2.40;;;;;;;3.84;100.00;100189.50;5011932;28;20612;-86
2023/04/12 00:53:40;;;;;;;5.93;3.25;;;;;;;3.83;100.00;100181.72;4998891;28;20048;-87
2023/04/12 00:56:10;;;;;;;2.75;2.47;;;;;;;3.81;100.00;100174.81;5027883;28;20045;-87
2023/04/12 00:58:37;;;;;;;7.13;2.60;;;;;;;3.80;100.00;100179.97;4994474;28;20591;-88
2023/04/12 01:01:05;;;;;;;2.78;2.28;;;;;;;3.80;100.00;100179.97;5007390;28;20053;-85
2023/04/12 01:03:33;;;;;;;6.40;2.50;;;;;;;3.82;100.00;100188.63;5035347;28;20100;-85
2023/04/12 01:06:19;;;;;;;2.67;2.47;;;;;;;3.81;100.00;100177.38;5011417;28;20041;-84
2023/04/12 01:09:11;;;;;;;13.45;3.33;;;;;;;3.79;100.00;100173.94;5018205;28;20076;-86
2023/04/12 01:11:45;;;;;;;4.93;4.20;;;;;;;3.76;100.00;100171.28;5024977;28;20060;-86
2023/04/12 01:14:29;;;;;;;4.30;2.55;;;;;;;3.74;99.49;100175.59;5006260;28;20046;-85
2023/04/12 01:17:01;;;;;;;5.60;2.33;;;;;;;3.69;98.91;100164.31;4994190;28;20041;-84
2023/04/12 01:19:58;;;;;;;6.70;2.67;;;;;;;3.68;98.89;100161.69;5026521;28;20073;-86
2023/04/12 01:23:45;;;;;;;3.55;2.15;;;;;;;3.65;99.03;100159.97;5026389;28;20046;-86
2023/04/12 01:26:35;;;;;;;5.05;2.00;;;;;;;3.65;98.13;100144.44;4946515;28;20145;-85
2023/04/12 01:29:09;;;;;;;7.80;2.35;;;;;;;3.68;97.94;100146.16;5010742;28;20053;-85
2023/04/12 01:31:37;;;;;;;4.72;2.47;;;;;;;3.66;97.72;100138.38;5019103;28;20115;-84
2023/04/12 01:34:05;;;;;;;6.32;2.33;;;;;;;3.65;97.25;100128.91;4997249;28;20045;-85
2023/04/12 01:36:34;;;;;;;4.20;1.95;;;;;;;3.66;97.32;100128.03;5014165;28;20415;-87
2023/04/12 01:39:03;;;;;;;5.75;2.38;;;;;;;3.67;96.62;100121.16;5010749;28;20054;-87
2023/04/12 01:41:32;;;;;;;4.20;2.10;;;;;;;3.69;96.43;100109.09;5018471;28;20713;-88
2023/04/12 01:43:59;;;;;;;4.57;2.22;;;;;;;3.70;96.81;100108.22;5042480;28;20592;-85
2023/04/12 01:46:26;;;;;;;3.28;1.75;;;;;;;3.73;96.73;100110.84;4996352;28;20033;-86
2023/04/12 01:48:58;;;;;;;2.28;1.70;;;;;;;3.74;96.67;100107.41;4998721;28;20046;-86
2023/04/12 01:51:44;;;;;;;4.10;1.92;;;;;;;3.76;96.12;100103.97;5002914;28;20054;-87
2023/04/12 01:54:39;;;;;;;4.60;2.10;;;;;;;3.80;95.86;100099.72;4994219;28;20054;-86
2023/04/12 01:57:07;;;;;;;2.35;1.63;;;;;;;3.84;95.21;100082.50;4996560;28;20108;-85
2023/04/12 01:59:41;;;;;;;3.30;2.35;;;;;;;3.83;94.79;100084.19;5012269;28;20040;-86
2023/04/12 02:02:09;;;;;;;3.03;1.77;;;;;;;3.87;93.87;100088.56;4992260;28;20076;-84
2023/04/12 02:04:36;;;;;;;3.13;2.28;;;;;;;3.88;93.85;100084.25;5011453;28;20057;-87
2023/04/12 02:07:03;;;;;;;5.55;2.28;;;;;;;3.90;93.53;100067.03;4987873;28;20440;-86
2023/04/12 02:09:30;;;;;;;2.85;1.95;;;;;;;3.91;93.04;100076.50;4996364;28;20125;-86
2023/04/12 02:11:57;;;;;;;5.35;2.78;;;;;;;3.90;92.12;100067.03;5026538;28;20075;-85
2023/04/12 02:14:26;;;;;;;3.42;1.58;;;;;;;3.92;91.93;100062.69;4994957;28;20045;-85
2023/04/12 02:16:54;;;;;;;5.25;1.58;;;;;;;3.92;91.69;100063.56;4993497;28;20103;-87
2023/04/12 02:19:21;;;;;;;6.30;2.20;;;;;;;3.93;90.95;100051.50;4988959;28;20053;-85
2023/04/12 02:21:47;;;;;;;10.32;1.77;;;;;;;3.93;90.74;100049.75;5010183;28;20092;-85
2023/04/12 02:24:15;;;;;;;3.40;1.30;;;;;;;3.92;90.50;100040.25;4991674;28;20054;-87
2023/04/12 02:26:41;;;;;;;4.38;2.10;;;;;;;3.93;90.07;100035.97;5012231;28;20483;-86
2023/04/12 02:29:09;;;;;;;5.00;1.55;;;;;;;3.93;90.02;100031.63;4995458;28;20046;-86
2023/04/12 02:31:37;;;;;;;6.47;1.50;;;;;;;3.96;89.86;100028.19;5011603;28;20049;-85
2023/04/12 02:34:05;;;;;;;2.45;1.45;;;;;;;3.96;89.45;100018.72;5021890;28;20080;-86
2023/04/12 02:36:32;;;;;;;4.47;1.40;;;;;;;3.97;89.16;100010.09;5007087;28;20102;-85
2023/04/12 02:38:59;;;;;;;3.75;1.40;;;;;;;3.99;89.09;100004.94;5024135;28;20046;-86
2023/04/12 02:41:25;;;;;;;4.25;1.67;;;;;;;4.02;88.79;99999.78;5011707;28;20053;-86
2023/04/12 02:43:52;;;;;;;5.85;2.20;;;;;;;4.03;88.29;99996.34;5009599;28;20058;-85
2023/04/12 02:46:23;;;;;;;6.47;1.20;;;;;;;4.04;88.27;99997.19;4994015;28;20042;-87
2023/04/12 02:48:50;;;;;;;5.72;1.73;;;;;;;4.09;88.04;99995.50;4995857;28;20804;-87
2023/04/12 02:51:24;;;;;;;6.47;1.42;;;;;;;4.10;88.01;99998.09;4994727;28;20144;-87
2023/04/12 02:53:51;;;;;;;4.70;1.33;;;;;;;4.12;88.00;99986.03;4991719;28;20050;-85
2023/04/12 02:56:20;;;;;;;1.55;1.10;;;;;;;4.13;87.97;99981.69;5024681;28;20064;-87
2023/04/12 02:58:50;;;;;;;5.50;1.33;;;;;;;4.13;87.75;99976.53;5010611;28;20037;-87
2023/04/12 03:01:18;;;;;;;6.72;1.30;;;;;;;4.16;87.82;99978.25;5012986;28;20485;-85
2023/04/12 03:03:47;;;;;;;4.20;1.20;;;;;;;4.17;87.77;99972.22;5012850;28;20054;-85
2023/04/12 03:06:14;;;;;;;4.95;1.38;;;;;;;4.19;87.91;99965.34;5024137;28;20042;-85
2023/04/12 03:08:41;;;;;;;3.85;1.67;;;;;;;4.18;87.90;99953.25;5005820;28;20050;-86
2023/04/12 03:11:07;;;;;;;2.55;1.17;;;;;;;4.20;88.07;99959.28;5032088;28;20049;-86
2023/04/12 03:13:37;;;;;;;1.50;0.90;;;;;;;4.20;87.96;99942.03;4997828;28;20049;-87
2023/04/12 03:16:28;;;;;;;4.00;1.00;;;;;;;4.21;87.99;99936.00;5024927;28;20512;-85
2023/04/12 03:18:55;;;;;;;1.88;0.93;;;;;;;4.23;87.38;99936.88;4990439;28;20146;-85
2023/04/12 03:21:22;;;;;;;4.07;1.75;;;;;;;4.28;87.33;99931.72;4996356;28;20535;-85
2023/04/12 03:23:49;;;;;;;3.10;1.33;;;;;;;4.32;86.45;99924.84;5021207;28;20137;-86
2023/04/12 03:26:25;;;;;;;7.95;1.48;;;;;;;4.34;86.33;99918.81;4994402;28;20178;-87
2023/04/12 03:29:03;;;;;;;1.50;1.15;;;;;;;4.38;85.87;99917.94;4991787;28;20046;-87
2023/04/12 03:31:31;;;;;;;2.05;1.40;;;;;;;4.39;85.47;99906.69;4996678;28;20076;-87
2023/04/12 03:33:57;;;;;;;3.55;1.40;;;;;;;4.42;85.77;99903.25;4997561;28;20042;-87
2023/04/12 03:36:25;;;;;;;6.35;1.50;;;;;;;4.45;85.16;99903.28;4999485;28;20053;-87
2023/04/12 03:38:59;;;;;;;4.40;1.38;;;;;;;4.49;85.14;99905.03;4995524;28;20107;-86
2023/04/12 03:41:26;;;;;;;2.05;0.95;;;;;;;4.51;85.20;99899.84;4997345;28;20471;-87
2023/04/12 03:43:53;;;;;;;8.05;1.55;;;;;;;4.53;85.03;99880.84;4993362;28;20488;-85
2023/04/12 03:46:20;;;;;;;2.40;1.00;;;;;;;4.57;85.00;99881.72;4996471;28;20058;-87
2023/04/12 03:48:46;;;;;;;1.17;0.95;;;;;;;4.58;84.97;99879.13;5014188;28;20046;-85
2023/04/12 03:51:14;;;;;;;3.60;1.80;;;;;;;4.62;85.20;99874.84;5017249;28;20046;-85
2023/04/12 03:53:41;;;;;;;2.97;1.50;;;;;;;4.66;85.25;99873.13;4999042;28;20136;-85
2023/04/12 03:56:08;;;;;;;3.40;1.38;;;;;;;4.68;85.01;99868.78;5019453;28;20496;-86
2023/04/12 03:58:36;;;;;;;5.20;1.50;;;;;;;4.71;85.00;99863.63;5012921;28;20109;-87
2023/04/12 04:01:06;;;;;;;3.63;0.93;;;;;;;4.76;84.70;99859.31;4995675;28;20050;-86
2023/04/12 04:03:34;;;;;;;1.95;1.35;;;;;;;4.80;84.36;99845.50;5047064;28;20583;-87
2023/04/12 04:06:02;;;;;;;4.15;1.30;;;;;;;4.86;83.87;99852.41;4994965;28;20109;-87
2023/04/12 04:08:31;;;;;;;2.53;1.10;;;;;;;4.92;83.39;99855.88;4990242;28;20057;-86
2023/04/12 04:10:58;;;;;;;8.50;1.30;;;;;;;4.96;82.97;99848.97;5039026;28;20851;-84
2023/04/12 04:13:28;;;;;;;5.43;1.27;;;;;;;5.03;82.44;99835.16;4992155;28;20073;-85
2023/04/12 04:16:08;;;;;;;4.18;1.63;;;;;;;5.08;81.68;99832.53;5023575;28;20099;-86
2023/04/12 04:18:37;;;;;;;3.42;0.85;;;;;;;5.10;80.58;99823.03;5028666;28;20067;-87
2023/04/12 04:21:06;;;;;;;4.70;2.42;;;;;;;5.06;80.98;99823.88;5024875;28;20041;-87
2023/04/12 04:23:37;;;;;;;3.85;1.20;;;;;;;5.04;80.99;99815.25;5025744;28;20049;-87
2023/04/12 04:26:14;;;;;;;3.25;1.73;;;;;;;4.99;81.46;99817.81;4995838;28;20049;-87
2023/04/12 04:28:45;;;;;;;6.40;1.20;;;;;;;4.94;82.10;99809.19;5013594;28;20109;-87
2023/04/12 04:31:16;;;;;;;7.60;0.98;;;;;;;4.89;82.53;99808.31;5030002;28;20052;-85
2023/04/12 04:33:50;;;;;;;2.42;1.27;;;;;;;4.85;82.94;99802.28;4999772;28;20136;-88
2023/04/12 04:36:17;;;;;;;2.28;1.10;;;;;;;4.81;83.16;99797.97;5023295;28;20118;-86
2023/04/12 04:38:44;;;;;;;4.20;1.08;;;;;;;4.77;83.07;99797.09;4999293;28;20133;-85
2023/04/12 04:41:11;;;;;;;2.05;0.77;;;;;;;4.73;83.53;99795.38;5008334;28;20056;-83
2023/04/12 04:43:41;;;;;;;2.80;1.15;;;;;;;4.74;83.75;99797.06;5016664;28;20045;-86
2023/04/12 04:46:09;;;;;;;3.03;1.25;;;;;;;4.70;83.69;99797.94;5007628;28;20054;-85
2023/04/12 04:48:42;;;;;;;3.08;1.35;;;;;;;4.68;83.89;99778.06;5044252;28;20117;-86
2023/04/12 04:51:09;;;;;;;7.88;1.40;;;;;;;4.68;84.04;99778.06;5014442;28;20045;-85
2023/04/12 04:53:36;;;;;;;2.40;1.15;;;;;;;4.69;84.27;99778.03;4997619;28;20659;-87
2023/04/12 04:56:02;;;;;;;5.53;2.00;;;;;;;4.69;84.02;99777.19;5042645;28;20109;-86
2023/04/12 04:58:29;;;;;;;6.97;2.30;;;;;;;4.72;84.33;99772.00;4997287;28;20055;-85
2023/04/12 05:00:59;;;;;;;4.43;1.02;;;;;;;4.78;84.21;99777.19;5000200;28;20047;-87
2023/04/12 05:03:27;;;;;;;5.95;1.52;;;;;;;4.87;83.85;99764.22;5006862;28;20071;-86
2023/04/12 05:05:55;;;;;;;3.33;1.75;;;;;;;4.97;83.31;99765.09;5012088;28;20049;-86
2023/04/12 05:08:25;;;;;;;3.67;1.20;;;;;;;5.03;82.85;99759.94;5026886;28;20095;-86
2023/04/12 05:10:52;;;;;;;2.88;1.17;;;;;;;5.07;82.67;99760.75;5012100;28;20124;-84
2023/04/12 05:13:21;;;;;;;1.60;1.05;;;;;;;5.16;82.55;99757.31;5010486;28;20519;-85
2023/04/12 05:15:48;;;;;;;4.60;1.27;;;;;;;5.19;82.36;99749.50;5013677;28;20510;-85
2023/04/12 05:18:16;;;;;;;6.80;2.38;;;;;;;5.23;82.35;99754.69;5016805;28;20050;-85
2023/04/12 05:20:43;;;;;;;7.13;1.63;;;;;;;5.26;82.16;99746.91;5000386;28;20045;-84
2023/04/12 05:23:09;;;;;;;4.93;1.80;;;;;;;5.30;82.18;99746.03;5000705;28;20168;-85
2023/04/12 05:25:36;;;;;;;3.70;1.52;;;;;;;5.32;82.08;99737.38;4999914;28;20057;-85
2023/04/12 05:28:03;;;;;;;3.13;1.10;;;;;;;5.34;81.63;99731.31;5000957;28;20482;-85
2023/04/12 05:30:30;;;;;;;1.80;1.10;;;;;;;5.36;81.95;99727.00;5016942;28;20136;-84
2023/04/12 05:32:56;;;;;;;1.83;1.15;;;;;;;5.39;81.71;99723.53;4999001;28;20049;-85
2023/04/12 05:35:23;;;;;;;4.68;1.55;;;;;;;5.44;81.57;99729.56;5010775;28;20137;-86
2023/04/12 05:37:49;;;;;;;5.15;0.98;;;;;;;5.46;81.24;99718.31;5010698;28;20516;-85
2023/04/12 05:40:18;;;;;;;3.22;1.55;;;;;;;5.49;81.49;99711.38;5008454;28;20149;-85
2023/04/12 05:42:45;;;;;;;3.00;1.40;;;;;;;5.52;81.47;99713.97;5024115;28;20034;-85
2023/04/12 05:45:11;;;;;;;3.90;1.45;;;;;;;5.56;81.35;99708.75;4966623;28;20074;-85
2023/04/12 05:47:38;;;;;;;5.97;3.45;;;;;;;5.66;81.19;99708.72;4995005;28;20076;-88
2023/04/12 05:50:08;;;;;;;1.85;1.02;;;;;;;5.76;80.89;99705.22;4992110;28;20042;-88
2023/04/12 05:55:48;;;;;;;1.50;1.23;;;;;;;6.02;79.63;99699.06;4987465;28;20492;-88
2023/04/12 05:58:14;;;;;;;3.72;1.30;;;;;;;6.07;78.88;99684.31;5010805;28;20048;-87
2023/04/12 06:00:41;;;;;;;5.82;1.35;;;;;;;6.03;79.32;99680.00;4979881;28;20129;-88
2023/04/12 06:03:10;;;;;;;1.42;1.08;;;;;;;5.97;79.22;99679.13;4994477;28;20038;-85
2023/04/12 06:05:37;;;;;;;3.90;1.00;;;;;;;5.90;79.66;99689.56;4998940;28;20085;-87
2023/04/12 06:08:04;;;;;;;5.43;2.10;;;;;;;5.93;80.05;99693.00;4983654;28;20052;-87
2023/04/12 06:10:31;;;;;;;4.32;2.35;;;;;;;6.06;79.57;99682.56;4998063;28;20050;-85
2023/04/12 06:12:58;;;;;;;4.78;1.52;;;;;;;6.20;78.95;99680.75;4984984;28;20091;-87
2023/04/12 06:15:25;;;;;;;3.85;1.27;;;;;;;6.36;78.19;99671.13;4986401;28;20089;-86
2023/04/12 06:17:51;;;;;;;5.25;1.20;;;;;;;6.48;77.87;99666.69;4998836;28;20049;-87
2023/04/12 06:20:18;;;;;;;4.03;1.00;;;;;;;6.63;77.58;99666.56;4998756;28;20570;-87
2023/04/12 06:22:45;;;;;;;4.15;1.27;;;;;;;6.88;76.55;99674.13;4996980;28;20142;-87
2023/04/12 06:25:11;;;;;;;5.38;1.42;;;;;;;7.16;75.53;99663.44;5026154;28;20050;-86
2023/04/12 06:27:38;;;;;;;3.72;1.67;;;;;;;7.41;74.37;99666.63;4996665;28;20042;-88
2023/04/12 06:30:05;;;;;;;3.47;1.45;;;;;;;7.65;73.20;99659.41;4989366;28;20049;-86
2023/04/12 06:32:32;;;;;;;5.50;1.00;;;;;;;7.84;71.86;99650.44;4989592;28;20169;-85
2023/04/12 06:34:58;;;;;;;5.70;1.35;;;;;;;8.01;70.85;99647.59;5013618;28;20053;-86
2023/04/12 06:37:25;;;;;;;5.07;1.27;;;;;;;8.32;69.86;99638.44;4985634;28;20042;-86
2023/04/12 06:39:52;;;;;;;6.28;1.00;;;;;;;8.71;69.06;99631.75;4993317;28;20101;-85
2023/04/12 06:42:18;;;;;;;5.00;1.13;;;;;;;8.86;67.89;99632.34;4978765;28;20136;-85
2023/04/12 06:44:45;;;;;;;2.55;0.80;;;;;;;8.76;68.26;99621.19;4977357;28;20048;-87
2023/04/12 06:47:12;;;;;;;3.42;1.35;;;;;;;8.64;69.03;99621.44;4992492;28;20065;-85
2023/04/12 06:49:39;;;;;;;4.13;0.90;;;;;;;8.61;69.61;99614.53;4979609;28;20112;-87
2023/04/12 06:52:05;;;;;;;24.42;2.95;;;;;;;8.57;69.54;99612.84;4976544;28;20061;-85
2023/04/12 06:54:35;;;;;;;4.82;2.45;;;;;;;8.57;69.80;99613.72;4998489;28;20050;-85
2023/04/12 06:57:01;;;;;;;3.40;1.20;;;;;;;8.59;69.36;99608.47;5008340;28;20038;-84
2023/04/12 06:59:29;;;;;;;2.17;1.50;;;;;;;8.64;70.15;99598.81;5011496;28;20136;-84
2023/04/12 07:01:55;;;;;;;7.15;1.42;;;;;;;8.73;69.21;99593.41;5011570;28;20069;-85
2023/04/12 07:04:22;;;;;;;3.83;1.27;;;;;;;8.81;69.54;99588.06;4987881;28;20133;-86
2023/04/12 07:06:48;;;;;;;3.30;1.20;;;;;;;8.82;69.74;99581.09;4991533;28;20149;-85
2023/04/12 07:09:15;;;;;;;2.35;1.55;;;;;;;8.82;70.10;99578.50;5005967;28;20138;-86
2023/04/12 07:11:42;;;;;;;6.25;1.50;;;;;;;8.77;70.78;99579.44;4977374;28;20058;-85
2023/04/12 07:14:09;;;;;;;4.85;1.70;;;;;;;8.76;70.90;99567.28;4978261;28;20053;-85
2023/04/12 07:16:36;;;;;;;6.03;1.38;;;;;;;8.67;71.67;99558.75;4978140;28;20505;-86
2023/04/12 07:19:02;;;;;;;5.03;1.00;;;;;;;8.66;72.14;99557.91;4993667;28;20076;-85
2023/04/12 07:21:29;;;;;;;2.00;1.27;;;;;;;8.93;71.73;99558.28;4992984;28;20038;-84
2023/04/12 07:23:55;;;;;;;4.15;1.20;;;;;;;9.21;70.95;99558.56;5010143;28;20520;-85
2023/04/12 07:26:22;;;;;;;2.63;1.02;;;;;;;9.44;70.32;99552.00;4978475;28;20053;-85
2023/04/12 07:28:48;;;;;;;2.53;1.15;;;;;;;9.59;70.13;99545.56;5021889;28;20051;-85
2023/04/12 07:31:15;;;;;;;2.22;1.15;;;;;;;9.82;69.64;99547.63;4995098;28;20392;-85
2023/04/12 07:33:41;;;;;;;3.42;0.85;;;;;;;9.82;69.68;99552.00;4995430;28;20061;-85
2023/04/12 07:36:08;;;;;;;3.90;1.17;;;;;;;9.87;69.62;99542.31;4980226;28;20141;-86
2023/04/12 07:38:35;;;;;;;4.55;1.40;;;;;;;9.80;70.05;99541.56;4996595;28;20050;-86
2023/04/12 07:41:02;;;;;;;3.40;1.17;;;;;;;9.77;70.18;99532.03;5019972;28;20090;-85
2023/04/12 07:43:28;;;;;;;2.50;1.15;;;;;;;9.79;70.13;99520.72;5017677;28;20050;-85
2023/04/12 07:45:55;;;;;;;3.97;0.77;;;;;;;9.93;69.97;99514.25;5024843;28;20050;-87
2023/04/12 07:48:22;;;;;;;6.70;1.15;;;;;;;10.14;69.68;99516.38;4992959;28;20017;-85
2023/04/12 07:50:49;;;;;;;1.55;1.40;;;;;;;10.27;69.62;99502.06;5005638;28;20050;-86
2023/04/12 07:53:28;;;;;;;3.83;0.90;;;;;;;10.47;68.92;99487.63;5015482;28;20046;-85
2023/04/12 07:55:56;;;;;;;1.70;0.90;;;;;;;10.38;69.31;99480.91;5004697;28;20045;-85
2023/04/12 07:58:24;;;;;;;5.80;1.50;;;;;;;10.35;69.84;99475.72;5006292;28;20049;-86
2023/04/12 08:00:53;;;;;;;4.30;1.15;;;;;;;10.17;70.08;99472.69;4987062;28;20050;-85
2023/04/12 08:03:20;;;;;;;4.57;1.20;;;;;;;10.07;71.11;99460.75;4982415;28;20050;-85
2023/04/12 08:05:52;;;;;;;2.95;1.15;;;;;;;10.08;70.91;99454.63;4997202;28;20464;-86
2023/04/12 08:08:22;;;;;;;6.57;1.17;;;;;;;9.98;71.46;99459.22;5021759;28;20049;-85
2023/04/12 08:10:50;;;;;;;3.10;1.25;;;;;;;9.89;71.81;99444.63;5017977;28;20663;-85
2023/04/12 08:13:17;;;;;;;3.00;0.88;;;;;;;9.94;71.57;99436.69;5022813;28;20119;-87
2023/04/12 08:15:45;;;;;;;7.03;2.15;;;;;;;9.94;72.17;99436.69;5019404;28;20386;-86
2023/04/12 08:18:12;;;;;;;2.88;1.02;;;;;;;10.00;72.27;99438.28;4997861;28;20045;-85
2023/04/12 08:20:40;;;;;;;4.80;0.80;;;;;;;10.05;71.56;99442.50;4997397;28;20524;-86
2023/04/12 08:23:08;;;;;;;3.55;1.17;;;;;;;10.01;71.56;99446.09;4993230;28;20074;-85
2023/04/12 08:25:35;;;;;;;3.53;1.00;;;;;;;9.99;71.78;99447.88;5014628;28;20220;-86
2023/04/12 08:28:02;;;;;;;4.65;0.82;;;;;;;9.95;71.49;99443.63;5014012;28;20057;-86
2023/04/12 08:30:31;;;;;;;2.90;1.17;;;;;;;9.81;71.69;99445.75;5024665;28;20169;-86
2023/04/12 08:32:57;;;;;;;1.63;1.10;;;;;;;9.74;72.27;99447.66;5013647;28;20547;-86
2023/04/12 08:35:24;;;;;;;6.32;2.05;;;;;;;9.69;72.81;99433.84;4988917;28;20152;-87
2023/04/12 08:37:51;;;;;;;1.55;0.65;;;;;;;9.56;74.38;99444.59;4999614;28;20077;-85
2023/04/12 08:40:20;;;;;;;2.58;1.00;;;;;;;9.48;76.02;99440.44;5011700;28;20099;-86
2023/04/12 08:42:47;;;;;;;5.45;1.00;;;;;;;9.40;77.40;99438.03;5014694;28;20056;-85
2023/04/12 08:45:14;;;;;;;4.47;1.08;;;;;;;9.20;79.15;99434.09;5003974;28;20072;-85
2023/04/12 08:47:43;;;;;;;3.22;1.08;;;;;;;9.01;81.21;99424.97;4999786;28;20140;-86
2023/04/12 08:50:13;;;;;;;3.17;1.15;;;;;;;8.74;83.51;99415.09;5036281;28;20076;-86
2023/04/12 08:52:40;;;;;;;2.88;1.50;;;;;;;8.46;86.57;99421.78;5022949;28;20041;-87
2023/04/12 08:55:09;;;;;;;4.10;1.83;;;;;;;8.35;87.93;99424.59;5016175;28;20046;-85
2023/04/12 08:57:40;;;;;;;1.05;0.95;;;;;;;8.34;89.30;99409.81;5001329;28;21005;-85
2023/04/12 09:00:11;;;;;;;2.47;1.38;;;;;;;8.25;88.68;99410.84;5017211;28;20064;-86
2023/04/12 09:02:41;;;;;;;5.57;1.13;;;;;;;8.22;88.80;99414.38;5003885;28;20060;-85
2023/04/12 09:05:09;;;;;;;7.45;1.40;;;;;;;8.19;89.40;99409.25;5002542;28;20177;-85
2023/04/12 09:07:36;;;;;;;4.63;1.27;;;;;;;8.14;90.14;99411.06;5013821;28;20048;-87
2023/04/12 09:10:04;;;;;;;5.70;0.90;;;;;;;8.11;89.26;99398.94;5019606;28;20041;-87
2023/04/12 09:12:31;;;;;;;3.88;0.90;;;;;;;8.11;90.06;99395.50;5034376;28;20045;-85
2023/04/12 09:15:17;;;;;;;1.48;1.10;;;;;;;8.11;90.19;99391.13;5017386;28;20045;-88
2023/04/12 09:17:44;;;;;;;4.30;1.08;;;;;;;8.08;89.79;99391.22;5016737;28;20045;-87
2023/04/12 09:20:16;;;;;;;4.38;1.10;;;;;;;8.14;89.95;99381.56;5006282;28;20061;-86
2023/04/12 09:22:45;;;;;;;7.30;1.60;;;;;;;8.12;89.61;99386.78;5017079;28;20538;-86
2023/04/12 09:25:13;;;;;;;1.95;1.40;;;;;;;8.17;90.16;99395.38;5003952;28;20056;-86
2023/04/12 09:27:53;;;;;;;1.75;1.33;;;;;;;8.19;89.30;99377.97;5022475;28;20041;-85
2023/04/12 09:30:20;;;;;;;1.10;1.02;;;;;;;8.22;89.84;99371.81;5018936;28;20149;-87
2023/04/12 09:32:49;;;;;;;1.38;1.23;;;;;;;8.21;90.27;99373.59;5022241;28;20060;-86
2023/04/12 09:35:15;;;;;;;4.82;1.55;;;;;;;8.17;91.09;99360.63;5017584;28;20045;-86
2023/04/12 09:37:42;;;;;;;0.93;0.88;;;;;;;8.13;91.40;99354.59;5020643;28;20107;-87
2023/04/12 09:40:10;;;;;;;3.20;1.20;;;;;;;8.01;91.39;99349.66;5015614;28;20060;-86
2023/04/12 09:42:52;;;;;;;2.75;1.58;;;;;;;7.94;92.75;99344.56;5023486;28;20061;-85
2023/04/12 09:45:24;;;;;;;2.55;1.40;;;;;;;7.90;93.05;99348.09;5036652;28;20073;-85
2023/04/12 09:47:55;;;;;;;3.88;1.23;;;;;;;7.91;94.34;99333.31;5017838;28;20045;-86
2023/04/12 09:50:24;;;;;;;1.95;1.70;;;;;;;7.92;94.79;99333.28;5049458;28;20045;-86
2023/04/12 09:52:53;;;;;;;5.18;1.92;;;;;;;7.92;95.39;99329.84;5007253;28;20064;-86
2023/04/12 09:55:24;;;;;;;5.80;1.85;;;;;;;7.95;96.09;99325.44;4988240;28;20045;-87
2023/04/12 09:57:53;;;;;;;1.35;1.25;;;;;;;7.98;95.54;99321.91;5005564;28;20052;-87
2023/04/12 10:00:24;;;;;;;3.88;1.75;;;;;;;8.06;95.33;99324.38;5011765;28;20500;-85
2023/04/12 10:02:54;;;;;;;3.70;1.33;;;;;;;8.06;95.87;99324.38;5015440;28;20916;-85
2023/04/12 10:05:24;;;;;;;6.97;1.77;;;;;;;8.13;96.13;99317.28;5003067;28;20115;-87
2023/04/12 10:07:52;;;;;;;4.45;1.60;;;;;;;8.21;96.81;99311.00;5017078;28;20064;-87
2023/04/12 10:10:20;;;;;;;5.18;1.63;;;;;;;8.31;96.60;99303.00;4997673;28;20725;-87
2023/04/12 10:12:48;;;;;;;3.05;1.50;;;;;;;8.38;96.06;99304.56;5005200;28;20049;-87
2023/04/12 10:15:17;;;;;;;4.05;1.60;;;;;;;8.30;96.02;99301.28;4996193;28;20045;-86
2023/04/12 10:17:50;;;;;;;2.72;1.20;;;;;;;8.32;96.31;99304.69;5030826;28;20550;-86
2023/04/12 10:20:18;;;;;;;4.70;1.75;;;;;;;8.36;96.72;99302.00;5020770;28;20045;-86
2023/04/12 10:22:48;;;;;;;4.05;1.27;;;;;;;8.33;96.53;99301.19;4999097;28;20045;-86
2023/04/12 10:25:19;;;;;;;3.42;1.30;;;;;;;8.35;97.26;99292.44;5014537;28;20054;-86
2023/04/12 10:27:48;;;;;;;3.03;1.10;;;;;;;8.44;97.15;99296.63;5019763;28;20038;-87
2023/04/12 10:30:23;;;;;;;2.97;1.30;;;;;;;8.45;97.11;99293.13;5031512;28;20041;-87
2023/04/12 10:33:10;;;;;;;2.00;1.35;;;;;;;8.65;96.52;99291.84;4999155;28;20075;-85
2023/04/12 10:36:02;;;;;;;1.75;1.10;;;;;;;8.75;95.55;99278.53;5023396;28;20042;-87
2023/04/12 10:38:36;;;;;;;3.00;1.43;;;;;;;8.85;96.09;99276.59;5002669;28;20095;-87
2023/04/12 10:41:19;;;;;;;2.50;1.13;;;;;;;9.01;96.14;99278.78;5028053;28;20332;-86
2023/04/12 10:43:48;;;;;;;1.40;1.30;;;;;;;9.08;95.82;99273.38;4999689;28;20124;-87
2023/04/12 10:46:45;;;;;;;3.22;0.82;;;;;;;9.12;97.25;99262.88;5015419;28;20073;-86
2023/04/12 10:49:14;;;;;;;2.00;1.08;;;;;;;9.02;97.26;99260.50;5016849;28;20041;-86
2023/04/12 10:52:09;;;;;;;6.28;1.45;;;;;;;8.99;97.37;99255.34;5001414;28;20060;-87
2023/04/12 10:54:37;;;;;;;4.47;1.30;;;;;;;8.92;98.30;99259.03;5032456;28;20564;-87
2023/04/12 10:57:04;;;;;;;3.55;1.08;;;;;;;8.93;98.98;99260.75;5036188;28;20041;-86
2023/04/12 10:59:55;;;;;;;4.32;1.05;;;;;;;8.90;98.78;99251.25;5005502;28;20052;-86
2023/04/12 11:02:23;;;;;;;1.58;1.40;;;;;;;8.83;100.00;99247.03;5037071;28;20558;-86
2023/04/12 11:05:13;;;;;;;5.07;0.95;;;;;;;8.77;99.39;99252.41;5005617;28;20049;-87
2023/04/12 11:07:45;;;;;;;1.33;0.65;;;;;;;8.73;99.17;99250.78;5021230;28;20116;-86
2023/04/12 11:10:20;;;;;;;3.28;1.30;;;;;;;8.72;98.64;99244.72;5002311;28;20049;-87
2023/04/12 11:12:54;;;;;;;1.40;0.80;;;;;;;8.73;98.41;99248.16;5037497;28;20037;-88
2023/04/12 11:15:20;;;;;;;3.38;1.13;;;;;;;8.76;98.05;99245.47;5004647;28;20049;-88
2023/04/12 11:17:55;;;;;;;2.83;1.27;;;;;;;8.81;97.88;99238.38;5018310;28;20049;-88
2023/04/12 11:20:21;;;;;;;4.68;1.05;;;;;;;8.86;97.58;99230.47;5003367;28;20049;-87
2023/04/12 11:22:50;;;;;;;1.40;1.23;;;;;;;8.96;96.89;99233.69;5019560;28;20050;-88
2023/04/12 11:25:17;;;;;;;2.10;1.90;;;;;;;8.97;96.63;99231.06;5020464;28;20084;-88
2023/04/12 11:27:52;;;;;;;1.98;1.02;;;;;;;9.00;95.35;99220.53;5021788;28;20079;-88
2023/04/12 11:30:19;;;;;;;0.45;0.45;;;;;;;9.07;95.29;99222.09;5004156;28;20059;-85
2023/04/12 11:32:47;;;;;;;1.60;0.70;;;;;;;9.12;94.46;99219.34;5020398;28;20046;-87
2023/04/12 11:35:19;;;;;;;1.25;1.08;;;;;;;9.18;93.84;99205.31;5007737;28;20065;-85
2023/04/12 11:37:45;;;;;;;2.10;1.30;;;;;;;9.21;94.16;99216.50;5021423;28;20046;-88
2023/04/12 11:40:14;;;;;;;1.33;1.23;;;;;;;9.18;93.54;99206.16;4991678;28;20041;-88
2023/04/12 11:42:40;;;;;;;2.83;0.95;;;;;;;9.19;93.78;99202.66;5001924;28;20069;-87
2023/04/12 11:45:09;;;;;;;1.98;1.10;;;;;;;9.18;93.62;99203.53;4995054;28;20112;-85
2023/04/12 11:47:42;;;;;;;2.30;1.13;;;;;;;9.20;93.74;99201.72;4985571;28;20077;-88
2023/04/12 11:50:09;;;;;;;0.65;0.60;;;;;;;9.22;93.46;99199.94;4982977;28;20052;-87
2023/04/12 11:52:36;;;;;;;2.60;1.17;;;;;;;9.15;93.49;99194.91;4985245;28;20046;-88
2023/04/12 11:55:07;;;;;;;1.10;0.75;;;;;;;9.08;93.72;99199.44;5006062;28;20038;-87